Impacts TAF Board
For situational awareness. Not to be used for flight planning purposes.
IDs:

KSTL - St Louis/Lambert Int, MO, US

Issued at 1720 UTC 22 Sep 2018
Updated at 1930 UTC 22 Sep 2018
Potential Impact None Slight Moderate High
Time1851Z 22/20Z 22/21Z 22/22Z 22/23Z 23/00Z 23/01Z 23/02Z 23/03Z 23/04Z 23/05Z 23/06Z 23/07Z 23/08Z>>
Type OBS PRVL PRVL PRVL PRVL PRVL PRVL PRVL PRVL PRVL PRVL PRVL PRVL PRVL
VIS 10 >6 >6 >6 >6 >6 >6 >6 >6 >6 >6 >6 >6 >6
CIG 230 -- -- -- -- -- -- -- -- -- -- -- -- --
Cover BKN SCT SCT SCT SCT SCT SCT SCT SCT SCT SCT SCT SCT SCT
FltCat VFR VFR VFR VFR VFR VFR VFR VFR VFR VFR VFR VFR VFR VFR
WX -- -- -- -- -- -- -- -- -- -- -- -- -- --
WDir 60 60 60 60 60 60 60 60 60 60 60 60 60 60
WSpd 8 7 7 7 7 7 7 7 7 7 7 7 7 7
WGst -- -- -- -- -- -- -- -- -- -- -- -- -- --
Raw TAF
KSTL 221720Z 2218/2324 07008KT P6SM BKN200
  FM222000 06007KT P6SM SCT120
  FM231500 07008KT P6SM FEW040


Raw METAR
KSTL 221851Z 06008KT 10SM SCT030 BKN230 20/12 A3021 RMK AO2 SLP223 T02000117
KSTL 221751Z 05005KT 10SM FEW040 SCT150 BKN230 19/12 A3023 RMK AO2 SLP230 T01890117 10189 20150 58007
KSTL 221651Z 08009KT 10SM BKN220 18/11 A3024 RMK AO2 SLP234 T01780111

METAR Board
Radar Display
Forecast Discussion
For situational awareness. Not to be used for flight planning purposes.